Time;durP1;ratioP1;P1;durP2;ratioP2;P2;SDS_P1;SDS_P2;PMS_P1;PMS_P2;Temp;Humidity;BMP_temperature;BMP_pressure;BME280_temperature;BME280_humidity;BME280_pressure;Samples;Min_cycle;Max_cycle;Signal;HPM_P1;HPM_P2
2021/05/23 00:00:39;;;;;;;3.88;1.60;;;;;;;12.69;62.53;100330.84;5094985;28;20022;-63
2021/05/23 00:03:09;;;;;;;4.07;1.48;;;;;;;12.67;62.65;100333.03;5095459;28;20047;-64
2021/05/23 00:05:39;;;;;;;5.70;1.80;;;;;;;12.68;62.50;100334.69;5095935;28;20060;-64
2021/05/23 00:08:11;;;;;;;3.97;1.50;;;;;;;12.71;62.72;100333.25;5095847;28;20032;-63
2021/05/23 00:10:48;;;;;;;5.07;1.52;;;;;;;12.69;62.59;100333.56;5094932;28;20028;-64
2021/05/23 00:13:18;;;;;;;4.35;1.60;;;;;;;12.67;62.79;100335.78;5095711;28;20399;-63
2021/05/23 00:15:52;;;;;;;4.90;1.50;;;;;;;12.67;62.49;100335.78;5095214;28;20054;-63
2021/05/23 00:18:18;;;;;;;3.22;1.42;;;;;;;12.65;62.74;100331.72;5095228;28;20538;-64
2021/05/23 00:20:44;;;;;;;8.07;1.70;;;;;;;12.63;62.85;100334.75;5095284;28;20024;-63
2021/05/23 00:23:10;;;;;;;3.47;1.50;;;;;;;12.59;62.81;100334.53;5094727;28;20053;-63
2021/05/23 00:25:38;;;;;;;3.45;1.42;;;;;;;12.57;62.95;100324.97;5095264;28;20032;-63
2021/05/23 00:28:04;;;;;;;3.78;1.60;;;;;;;12.55;63.05;100329.94;5095269;28;20031;-63
2021/05/23 00:30:30;;;;;;;2.75;1.58;;;;;;;12.53;63.08;100330.22;5095575;28;20044;-64
2021/05/23 00:32:55;;;;;;;5.32;1.50;;;;;;;12.48;63.26;100322.09;5095311;28;20089;-63
2021/05/23 00:35:21;;;;;;;4.30;1.67;;;;;;;12.50;63.18;100329.97;5095615;28;20109;-64
2021/05/23 00:37:47;;;;;;;3.97;1.40;;;;;;;12.47;63.11;100322.38;5095600;28;20070;-64
2021/05/23 00:40:13;;;;;;;4.47;1.40;;;;;;;12.50;63.18;100335.44;5095344;28;20123;-63
2021/05/23 00:42:39;;;;;;;6.10;1.88;;;;;;;12.52;63.18;100325.84;5095157;28;20053;-63
2021/05/23 00:45:08;;;;;;;3.60;1.55;;;;;;;12.49;63.05;100317.41;5095646;28;20020;-64
2021/05/23 00:47:33;;;;;;;4.43;1.33;;;;;;;12.47;62.93;100320.44;5094944;28;20032;-64
2021/05/23 00:49:59;;;;;;;2.85;1.40;;;;;;;12.57;62.91;100336.75;5094677;28;20519;-63
2021/05/23 00:52:27;;;;;;;3.92;1.20;;;;;;;12.56;62.86;100328.84;5095132;28;20088;-63
2021/05/23 00:54:52;;;;;;;5.95;1.40;;;;;;;12.54;62.73;100320.91;5095099;28;20123;-64
2021/05/23 00:57:17;;;;;;;4.78;1.20;;;;;;;12.41;62.80;100305.22;5094365;28;20098;-63
2021/05/23 00:59:43;;;;;;;9.00;1.60;;;;;;;12.54;62.87;100320.91;5095179;28;20031;-63
2021/05/23 01:02:20;;;;;;;3.80;1.30;;;;;;;12.55;62.87;100319.78;5094704;28;20028;-63
2021/05/23 01:04:46;;;;;;;4.68;1.50;;;;;;;12.52;63.05;100311.38;5095152;28;20067;-65
2021/05/23 01:07:11;;;;;;;7.18;1.40;;;;;;;12.51;63.04;100313.31;5095045;28;20032;-64
2021/05/23 01:09:37;;;;;;;3.40;1.38;;;;;;;12.51;63.23;100315.22;5094534;28;20028;-63
2021/05/23 01:12:21;;;;;;;3.33;1.30;;;;;;;12.55;63.15;100314.31;5094324;28;20089;-64
2021/05/23 01:14:53;;;;;;;3.15;1.40;;;;;;;12.57;63.04;100309.38;5095235;28;20392;-66
2021/05/23 01:17:23;;;;;;;3.92;1.58;;;;;;;12.47;62.95;100289.56;5094835;28;20039;-63
2021/05/23 01:20:06;;;;;;;3.40;1.30;;;;;;;12.58;62.93;100308.28;5095109;28;20032;-63
2021/05/23 01:22:41;;;;;;;4.82;1.50;;;;;;;12.53;62.99;100304.78;5094379;28;20115;-65
2021/05/23 01:25:19;;;;;;;4.55;1.45;;;;;;;12.50;63.04;100302.63;5094920;28;20051;-63
2021/05/23 01:27:48;;;;;;;4.50;1.25;;;;;;;12.48;63.26;100296.66;5093823;28;20121;-64
2021/05/23 01:30:20;;;;;;;5.60;1.70;;;;;;;12.48;63.22;100305.69;5094426;28;20052;-63
2021/05/23 01:32:48;;;;;;;5.07;1.60;;;;;;;12.46;63.34;100305.16;5094535;28;20032;-65
2021/05/23 01:35:20;;;;;;;6.38;1.60;;;;;;;12.34;63.42;100283.69;5093751;28;20066;-63
2021/05/23 01:37:49;;;;;;;5.65;1.88;;;;;;;12.47;63.42;100298.56;5095229;28;20088;-66
2021/05/23 01:40:17;;;;;;;3.45;1.40;;;;;;;12.48;63.57;100291.19;5099044;28;20027;-63
2021/05/23 01:42:43;;;;;;;5.80;1.38;;;;;;;12.32;63.66;100260.50;5098486;28;20065;-63
2021/05/23 01:45:10;;;;;;;3.42;1.50;;;;;;;12.53;63.51;100296.59;5098772;28;20059;-63
2021/05/23 01:47:36;;;;;;;5.70;1.50;;;;;;;12.55;63.37;100288.91;5097842;28;20529;-64
2021/05/23 01:50:02;;;;;;;2.88;1.55;;;;;;;12.57;63.42;100287.50;5098527;28;20077;-65
2021/05/23 01:52:27;;;;;;;3.55;1.60;;;;;;;12.59;63.25;100287.19;5097683;28;20031;-63
2021/05/23 01:54:53;;;;;;;3.95;1.60;;;;;;;12.62;63.42;100294.00;5097667;28;20031;-63
2021/05/23 01:57:18;;;;;;;6.38;1.52;;;;;;;12.64;63.33;100286.31;5098286;28;20555;-64
2021/05/23 01:59:44;;;;;;;5.55;1.70;;;;;;;12.64;63.19;100295.34;5098210;28;20036;-63
2021/05/23 02:02:09;;;;;;;3.20;1.45;;;;;;;12.60;63.21;100289.63;5097731;28;20095;-63
2021/05/23 02:04:35;;;;;;;3.97;1.50;;;;;;;12.57;63.32;100292.13;5098196;28;20394;-63
2021/05/23 02:07:00;;;;;;;5.82;1.80;;;;;;;12.52;63.37;100292.22;5098028;28;20491;-65
2021/05/23 02:09:25;;;;;;;3.33;1.50;;;;;;;12.34;63.12;100274.69;5097938;28;20032;-63
2021/05/23 02:11:55;;;;;;;6.53;1.75;;;;;;;12.43;63.53;100286.59;5097475;28;20038;-64
2021/05/23 02:14:21;;;;;;;3.35;1.60;;;;;;;12.41;63.52;100280.63;5097882;28;20053;-64
2021/05/23 02:16:46;;;;;;;7.22;2.08;;;;;;;12.37;63.33;100283.13;5097444;28;20034;-65
2021/05/23 02:19:12;;;;;;;6.38;2.50;;;;;;;12.33;63.81;100284.00;5096448;28;20020;-64
2021/05/23 02:21:37;;;;;;;6.18;2.15;;;;;;;12.15;63.72;100266.47;5096931;28;20027;-63
2021/05/23 02:24:03;;;;;;;6.15;2.97;;;;;;;12.33;63.74;100301.19;5086743;28;20024;-63
2021/05/23 02:26:28;;;;;;;5.60;2.20;;;;;;;12.31;63.65;100292.50;5097984;28;20059;-63
2021/05/23 02:28:54;;;;;;;3.97;2.20;;;;;;;12.33;63.73;100300.41;5097733;28;20166;-63
2021/05/23 02:31:20;;;;;;;8.32;2.42;;;;;;;12.35;63.84;100304.47;5097395;28;20059;-63
2021/05/23 02:33:45;;;;;;;4.90;2.63;;;;;;;12.38;63.68;100305.78;5097811;28;20023;-64
2021/05/23 02:36:10;;;;;;;6.25;3.05;;;;;;;12.39;63.59;100305.53;5097380;28;20053;-64
2021/05/23 02:38:36;;;;;;;11.13;3.22;;;;;;;12.39;63.50;100300.06;5097226;28;20430;-64
2021/05/23 02:41:02;;;;;;;7.65;3.13;;;;;;;12.37;63.44;100294.06;5097424;28;20078;-64
2021/05/23 02:43:29;;;;;;;7.25;3.03;;;;;;;12.37;63.43;100293.22;5097388;28;20035;-63
2021/05/23 02:45:55;;;;;;;7.32;3.38;;;;;;;12.34;63.49;100291.91;5096638;28;20043;-63
2021/05/23 02:48:20;;;;;;;8.40;3.58;;;;;;;12.36;63.50;100299.81;5097222;28;20056;-64
2021/05/23 02:50:49;;;;;;;6.13;3.10;;;;;;;12.34;63.59;100300.09;5096018;28;20031;-66
2021/05/23 02:53:15;;;;;;;5.47;2.45;;;;;;;12.25;63.56;100297.22;5097478;28;20035;-63
2021/05/23 02:55:43;;;;;;;6.20;2.70;;;;;;;12.21;63.83;100306.28;5095788;28;20039;-65
2021/05/23 02:58:11;;;;;;;11.00;2.80;;;;;;;12.16;64.08;100311.81;5097106;28;20032;-63
2021/05/23 03:00:37;;;;;;;4.60;2.63;;;;;;;12.14;63.92;100300.38;5096814;28;20035;-64
2021/05/23 03:03:03;;;;;;;8.60;2.75;;;;;;;11.93;63.95;100278.69;5096894;28;20028;-63
2021/05/23 03:05:29;;;;;;;4.32;2.80;;;;;;;12.14;64.00;100298.44;5096743;28;20087;-63
2021/05/23 03:07:56;;;;;;;5.13;2.30;;;;;;;12.17;63.93;100313.44;5096592;28;20120;-63
2021/05/23 03:10:24;;;;;;;4.10;2.42;;;;;;;12.16;64.13;100309.91;5096419;28;20555;-64
2021/05/23 03:12:50;;;;;;;7.10;2.25;;;;;;;12.16;64.05;100317.25;5096979;28;20080;-63
2021/05/23 03:15:18;;;;;;;5.43;2.35;;;;;;;12.15;64.07;100324.66;5096767;28;20028;-64
2021/05/23 03:17:43;;;;;;;5.57;2.38;;;;;;;12.14;64.00;100331.22;5095999;28;20115;-64
2021/05/23 03:20:10;;;;;;;6.40;2.38;;;;;;;12.14;64.17;100324.97;5096475;28;20047;-63
2021/05/23 03:22:37;;;;;;;6.95;2.00;;;;;;;12.14;63.97;100333.16;5095083;28;20034;-65
2021/05/23 03:25:07;;;;;;;3.97;2.17;;;;;;;12.12;64.07;100323.34;5096483;28;20078;-64
2021/05/23 03:27:33;;;;;;;7.43;2.10;;;;;;;11.92;63.89;100293.47;5096422;28;20814;-64
2021/05/23 03:29:58;;;;;;;9.32;2.13;;;;;;;12.10;63.96;100320.06;5096028;28;20051;-63
2021/05/23 03:32:24;;;;;;;4.00;1.80;;;;;;;12.09;63.83;100323.09;5096441;28;20096;-63
2021/05/23 03:34:49;;;;;;;5.85;1.67;;;;;;;12.05;63.83;100325.59;5096602;28;20118;-64
2021/05/23 03:37:15;;;;;;;5.53;1.77;;;;;;;12.02;63.92;100325.38;5096625;28;20077;-64
2021/05/23 03:39:40;;;;;;;5.00;2.20;;;;;;;11.91;64.07;100300.03;5096172;28;20466;-65
2021/05/23 03:42:06;;;;;;;7.57;1.90;;;;;;;11.91;64.14;100308.22;5095785;28;20028;-64
2021/05/23 03:44:31;;;;;;;4.53;1.80;;;;;;;12.04;64.20;100323.97;5096165;28;20496;-66
2021/05/23 03:46:57;;;;;;;4.72;2.10;;;;;;;12.03;64.18;100316.88;5095781;28;20036;-63
2021/05/23 03:49:22;;;;;;;5.38;2.00;;;;;;;12.03;64.23;100322.34;5095636;28;20019;-63
2021/05/23 03:51:48;;;;;;;4.90;1.67;;;;;;;12.04;64.25;100329.44;5095928;28;20501;-63
2021/05/23 03:54:14;;;;;;;3.70;1.60;;;;;;;11.83;64.17;100309.69;5095779;28;20046;-63
2021/05/23 03:56:40;;;;;;;4.35;1.75;;;;;;;12.00;64.10;100333.84;5096281;28;20039;-63
2021/05/23 03:59:05;;;;;;;7.65;1.65;;;;;;;11.99;64.29;100326.75;5095469;28;20058;-64
2021/05/23 04:01:31;;;;;;;6.63;1.77;;;;;;;11.96;64.33;100327.31;5094760;28;20024;-66
2021/05/23 04:03:59;;;;;;;5.32;1.42;;;;;;;11.92;64.33;100327.06;5095418;28;20035;-63
2021/05/23 04:06:24;;;;;;;4.20;1.77;;;;;;;11.80;64.53;100316.53;5095699;28;20028;-63
2021/05/23 04:08:50;;;;;;;7.32;1.60;;;;;;;11.91;64.46;100328.19;5095152;28;20032;-63
2021/05/23 04:11:19;;;;;;;4.45;1.60;;;;;;;11.91;64.71;100339.09;5095444;28;20028;-65
2021/05/23 04:13:46;;;;;;;5.00;1.58;;;;;;;11.92;64.67;100342.63;5095808;28;20028;-63
2021/05/23 04:16:11;;;;;;;5.05;1.90;;;;;;;11.92;64.69;100348.09;5095817;28;20028;-64
2021/05/23 04:18:37;;;;;;;6.75;1.60;;;;;;;11.92;64.53;100345.38;5094962;28;20484;-65
2021/05/23 04:21:03;;;;;;;5.55;1.52;;;;;;;11.83;64.67;100328.81;5095344;28;20038;-63
2021/05/23 04:23:28;;;;;;;4.43;1.70;;;;;;;11.90;64.55;100334.75;5095366;28;20161;-63
2021/05/23 04:25:54;;;;;;;5.20;2.17;;;;;;;11.90;64.52;100337.47;5093363;28;20095;-64
2021/05/23 04:28:19;;;;;;;4.80;1.50;;;;;;;11.91;64.43;100338.28;5094312;28;20039;-63
2021/05/23 04:30:45;;;;;;;4.43;1.80;;;;;;;11.90;64.45;100336.66;5095345;28;21392;-63
2021/05/23 04:33:10;;;;;;;4.07;1.48;;;;;;;11.91;64.43;100332.81;5094772;28;20115;-63
2021/05/23 04:35:37;;;;;;;7.18;1.63;;;;;;;11.91;64.46;100335.53;5095173;28;20028;-63
2021/05/23 04:38:04;;;;;;;6.28;1.85;;;;;;;11.93;64.56;100338.81;5095550;28;20035;-64
2021/05/23 04:40:30;;;;;;;5.93;1.48;;;;;;;11.91;64.22;100333.63;5094960;28;20157;-63
2021/05/23 04:42:55;;;;;;;6.20;1.88;;;;;;;11.79;64.27;100317.63;5093478;28;20131;-64
2021/05/23 04:45:22;;;;;;;4.63;1.80;;;;;;;11.78;64.24;100321.47;5095691;28;20379;-64
2021/05/23 04:47:48;;;;;;;8.05;1.55;;;;;;;11.96;64.30;100340.97;5095127;28;20785;-64
2021/05/23 04:50:14;;;;;;;6.75;1.60;;;;;;;11.98;64.23;100347.00;5095667;28;20464;-64
2021/05/23 04:52:39;;;;;;;4.45;1.92;;;;;;;12.01;64.23;100351.88;5095054;28;20043;-63
2021/05/23 04:55:06;;;;;;;4.32;1.95;;;;;;;12.04;64.12;100348.56;5094781;28;20035;-65
2021/05/23 04:57:32;;;;;;;5.05;2.05;;;;;;;12.09;64.24;100353.16;5094878;28;20110;-65
2021/05/23 04:59:58;;;;;;;5.47;1.92;;;;;;;12.12;64.02;100353.41;5095013;28;20028;-63
2021/05/23 05:02:23;;;;;;;7.10;1.85;;;;;;;12.15;63.96;100362.94;5095509;28;20024;-63
2021/05/23 05:04:49;;;;;;;4.93;1.92;;;;;;;12.17;64.13;100359.91;5094873;28;20039;-63
2021/05/23 05:07:14;;;;;;;4.47;1.70;;;;;;;12.20;64.21;100365.59;5095196;28;20514;-63
2021/05/23 05:09:40;;;;;;;7.38;1.60;;;;;;;12.22;63.99;100357.94;5095263;28;20027;-63
2021/05/23 05:12:06;;;;;;;5.82;1.80;;;;;;;12.25;63.91;100356.53;5094877;28;20054;-63
2021/05/23 05:14:32;;;;;;;5.63;1.60;;;;;;;12.24;63.89;100366.66;5099258;28;20028;-66
2021/05/23 05:16:57;;;;;;;4.47;1.45;;;;;;;12.28;63.89;100362.22;5098877;28;20111;-64
2021/05/23 05:19:23;;;;;;;3.85;1.40;;;;;;;12.13;63.71;100337.81;5098604;28;20059;-63
2021/05/23 05:21:48;;;;;;;5.68;1.55;;;;;;;12.30;63.39;100366.59;5098562;28;20024;-64
2021/05/23 05:24:14;;;;;;;3.97;1.55;;;;;;;12.27;63.29;100366.06;5098900;28;20085;-63
2021/05/23 05:26:40;;;;;;;4.32;1.50;;;;;;;12.24;63.44;100368.56;5099034;28;20016;-64
2021/05/23 05:29:06;;;;;;;4.70;1.60;;;;;;;12.06;63.27;100346.38;5098704;28;20075;-63
2021/05/23 05:31:32;;;;;;;4.57;1.50;;;;;;;12.18;63.52;100377.94;5098371;28;20068;-66
2021/05/23 05:33:57;;;;;;;3.80;1.70;;;;;;;12.14;63.79;100374.97;5098509;28;20076;-63
2021/05/23 05:36:23;;;;;;;5.90;1.38;;;;;;;12.13;63.82;100370.59;5098810;28;20102;-64
2021/05/23 05:38:49;;;;;;;4.00;1.30;;;;;;;12.08;63.86;100354.28;5098592;28;20030;-63
2021/05/23 05:41:16;;;;;;;4.72;1.52;;;;;;;12.25;64.01;100376.50;5098590;28;20023;-63
2021/05/23 05:43:41;;;;;;;5.63;1.70;;;;;;;12.29;63.65;100382.19;5098739;28;20388;-64
2021/05/23 05:46:07;;;;;;;3.80;1.65;;;;;;;11.63;63.54;100269.72;5097854;28;20372;-63
2021/05/23 05:48:32;;;;;;;6.03;1.95;;;;;;;12.24;63.23;100366.66;5098439;28;20436;-64
2021/05/23 05:50:58;;;;;;;5.05;1.98;;;;;;;12.23;63.77;100364.22;5097790;28;20090;-64
2021/05/23 05:53:23;;;;;;;2.97;1.50;;;;;;;12.23;63.55;100366.97;5098928;28;20024;-64
2021/05/23 05:55:48;;;;;;;4.78;1.73;;;;;;;12.25;63.65;100384.69;5097884;28;20027;-63
2021/05/23 05:58:14;;;;;;;4.07;1.73;;;;;;;12.26;63.82;100399.16;5098483;28;20027;-63
2021/05/23 06:00:39;;;;;;;5.57;1.98;;;;;;;12.27;63.58;100403.53;5098138;28;20405;-63
2021/05/23 06:03:05;;;;;;;5.68;1.80;;;;;;;12.27;63.58;100392.59;5098277;28;20027;-63
2021/05/23 06:05:30;;;;;;;7.20;1.70;;;;;;;12.26;63.59;100396.44;5098030;28;20085;-65
2021/05/23 06:07:56;;;;;;;7.70;2.10;;;;;;;12.19;63.62;100387.75;5097298;28;20388;-63
2021/05/23 06:10:22;;;;;;;5.13;2.00;;;;;;;12.30;63.77;100407.59;5096718;28;20028;-64
2021/05/23 06:12:48;;;;;;;3.72;1.65;;;;;;;12.32;63.84;100403.47;5096307;28;20028;-64
2021/05/23 06:15:13;;;;;;;4.45;1.83;;;;;;;12.36;63.93;100400.97;5097915;28;20085;-64
2021/05/23 06:17:39;;;;;;;8.27;1.95;;;;;;;12.32;63.71;100389.78;5098106;28;20077;-63
2021/05/23 06:20:06;;;;;;;3.88;1.50;;;;;;;12.46;63.44;100405.53;5097300;28;20028;-63
2021/05/23 06:22:32;;;;;;;4.75;1.80;;;;;;;12.35;63.45;100374.75;5096891;28;20028;-65
2021/05/23 06:24:57;;;;;;;3.97;1.98;;;;;;;12.64;63.44;100412.16;5097430;28;20038;-63
2021/05/23 06:27:23;;;;;;;4.18;1.67;;;;;;;12.72;63.17;100406.03;5097299;28;20046;-63
2021/05/23 06:29:48;;;;;;;6.38;2.13;;;;;;;12.82;62.80;100405.06;5097578;28;20056;-64
2021/05/23 06:32:14;;;;;;;5.70;2.17;;;;;;;12.88;62.60;100401.19;5097683;28;20040;-64
2021/05/23 06:34:39;;;;;;;4.30;1.60;;;;;;;12.95;62.29;100400.81;5097116;28;20036;-63
2021/05/23 06:37:05;;;;;;;5.13;1.52;;;;;;;12.96;62.13;100405.19;5097481;28;20028;-63
2021/05/23 06:39:31;;;;;;;4.93;1.60;;;;;;;12.96;62.30;100403.25;5097215;28;20036;-66
2021/05/23 06:41:56;;;;;;;7.65;2.22;;;;;;;12.98;62.26;100395.56;5093152;28;20020;-64
2021/05/23 06:44:22;;;;;;;7.80;1.52;;;;;;;13.06;62.11;100402.31;5097613;28;20537;-63
2021/05/23 06:46:47;;;;;;;12.38;1.98;;;;;;;13.16;61.72;100393.13;5097307;28;20028;-64
2021/05/23 06:49:13;;;;;;;5.57;1.67;;;;;;;13.19;61.58;100387.88;5096778;28;20315;-63
2021/05/23 06:51:39;;;;;;;6.15;1.80;;;;;;;13.05;61.36;100378.78;5097243;28;20024;-63
2021/05/23 06:54:05;;;;;;;6.80;2.20;;;;;;;13.13;61.21;100401.94;5096587;28;20519;-63
2021/05/23 06:56:31;;;;;;;7.00;2.47;;;;;;;13.07;61.21;100403.94;5096059;28;20073;-66
2021/05/23 06:58:56;;;;;;;9.07;3.33;;;;;;;12.88;61.09;100401.19;5097076;28;20123;-64
2021/05/23 07:01:22;;;;;;;9.07;2.65;;;;;;;12.98;61.02;100416.66;5096905;28;20020;-65
2021/05/23 07:03:47;;;;;;;11.00;2.60;;;;;;;12.99;61.05;100419.09;5096936;28;20032;-65
2021/05/23 07:06:13;;;;;;;8.07;2.30;;;;;;;13.02;60.86;100418.50;5096484;28;20111;-64
2021/05/23 07:08:38;;;;;;;10.77;2.38;;;;;;;13.05;60.79;100417.94;5096525;28;20369;-64
2021/05/23 07:11:04;;;;;;;6.50;2.22;;;;;;;13.11;61.10;100421.38;5096925;28;20205;-63
2021/05/23 07:13:29;;;;;;;7.75;2.10;;;;;;;13.19;61.34;100425.41;5095668;28;20063;-63
2021/05/23 07:15:55;;;;;;;7.50;2.28;;;;;;;13.28;61.28;100415.41;5096792;28;20047;-64
2021/05/23 07:18:21;;;;;;;6.90;2.08;;;;;;;13.20;61.37;100405.13;5096586;28;20020;-64
2021/05/23 07:20:47;;;;;;;5.88;1.88;;;;;;;13.38;61.16;100415.28;5096149;28;20028;-64
2021/05/23 07:23:13;;;;;;;9.35;2.78;;;;;;;13.42;61.23;100409.22;5096458;28;20111;-64
2021/05/23 07:25:39;;;;;;;6.53;2.22;;;;;;;13.43;61.14;100410.84;5091788;28;20028;-63
2021/05/23 07:28:06;;;;;;;7.00;2.08;;;;;;;13.25;60.69;100385.88;5096284;28;20067;-64
2021/05/23 07:30:34;;;;;;;10.02;2.70;;;;;;;13.33;60.70;100412.59;5089888;28;20575;-67
2021/05/23 07:33:00;;;;;;;9.50;3.10;;;;;;;13.24;60.73;100411.63;5094645;28;20059;-63
2021/05/23 07:35:26;;;;;;;12.25;2.25;;;;;;;13.26;60.87;100414.88;5089951;28;20020;-63
2021/05/23 07:37:51;;;;;;;13.30;2.50;;;;;;;13.30;61.09;100415.94;5089803;28;20020;-64
2021/05/23 07:40:17;;;;;;;10.68;2.53;;;;;;;13.38;61.22;100407.09;5090319;28;20070;-64
2021/05/23 07:42:43;;;;;;;8.13;2.03;;;;;;;13.57;60.96;100419.91;5090249;28;20500;-64
2021/05/23 07:45:09;;;;;;;7.20;1.83;;;;;;;13.64;60.55;100419.56;5091497;28;20031;-64
2021/05/23 07:47:35;;;;;;;9.13;2.13;;;;;;;13.82;59.99;100435.16;5094737;28;20028;-63
2021/05/23 07:50:00;;;;;;;11.05;2.22;;;;;;;13.65;59.31;100407.47;5090799;28;20038;-65
2021/05/23 07:52:26;;;;;;;7.60;2.20;;;;;;;13.90;59.27;100430.09;5089361;28;20024;-64
2021/05/23 07:54:51;;;;;;;6.47;1.90;;;;;;;13.97;59.12;100434.06;5096155;28;20024;-64
2021/05/23 07:57:17;;;;;;;7.13;2.00;;;;;;;14.06;59.02;100433.38;5095424;28;20020;-65
2021/05/23 07:59:42;;;;;;;8.65;2.40;;;;;;;14.14;58.94;100429.94;5094376;28;20028;-64
2021/05/23 08:02:08;;;;;;;13.25;2.17;;;;;;;14.23;59.03;100430.06;5095900;28;20012;-64
2021/05/23 08:04:33;;;;;;;8.95;2.08;;;;;;;14.27;58.27;100423.69;5096265;28;20433;-64
2021/05/23 08:06:59;;;;;;;10.63;1.73;;;;;;;14.27;57.72;100418.19;5096075;28;20020;-64
2021/05/23 08:09:24;;;;;;;9.55;1.90;;;;;;;14.24;57.51;100424.28;5093802;28;20506;-65
2021/05/23 08:11:50;;;;;;;9.77;1.95;;;;;;;14.24;56.98;100429.75;5086571;28;20039;-64
2021/05/23 08:14:16;;;;;;;6.15;2.10;;;;;;;14.21;57.23;100427.63;5079313;28;20016;-67
2021/05/23 08:16:45;;;;;;;8.18;1.83;;;;;;;14.25;56.85;100427.84;5095973;28;20024;-64
2021/05/23 08:19:12;;;;;;;6.35;1.73;;;;;;;14.28;56.92;100432.72;5093867;28;20035;-65
2021/05/23 08:21:38;;;;;;;7.78;1.88;;;;;;;14.30;56.02;100430.47;5095763;28;20074;-65
2021/05/23 08:24:04;;;;;;;10.40;1.60;;;;;;;14.20;55.82;100406.81;5093268;28;20114;-63
2021/05/23 08:26:30;;;;;;;9.70;2.03;;;;;;;14.43;55.36;100426.13;5095407;28;20102;-64
2021/05/23 08:28:55;;;;;;;6.10;1.70;;;;;;;14.45;55.15;100430.19;5095485;28;20106;-64
2021/05/23 08:31:21;;;;;;;8.23;2.00;;;;;;;14.46;54.94;100425.53;5095162;28;20031;-65
2021/05/23 08:33:46;;;;;;;5.00;1.58;;;;;;;14.53;55.10;100423.19;5093898;28;20078;-66
2021/05/23 08:36:12;;;;;;;5.80;2.08;;;;;;;14.60;54.86;100412.63;5095517;28;20020;-64
2021/05/23 08:38:37;;;;;;;5.45;1.60;;;;;;;14.70;54.71;100422.59;5095714;28;20504;-64
2021/05/23 08:41:03;;;;;;;6.63;1.65;;;;;;;14.83;54.81;100422.91;5094395;28;20084;-65
2021/05/23 08:43:29;;;;;;;8.85;2.20;;;;;;;14.88;54.78;100418.09;5095018;28;20020;-63
2021/05/23 08:45:55;;;;;;;8.18;1.63;;;;;;;14.88;54.39;100404.38;5094963;28;20023;-64
2021/05/23 08:48:21;;;;;;;5.07;1.63;;;;;;;14.93;54.20;100409.78;5099391;28;20016;-64
2021/05/23 08:50:48;;;;;;;5.50;1.52;;;;;;;15.14;53.84;100430.47;5099031;28;20420;-65
2021/05/23 08:53:13;;;;;;;13.30;1.85;;;;;;;15.21;53.84;100431.66;5090901;28;20399;-63
2021/05/23 08:55:42;;;;;;;7.75;2.97;;;;;;;15.30;53.45;100426.25;5099416;28;20796;-64
2021/05/23 08:58:07;;;;;;;7.10;1.88;;;;;;;15.34;53.04;100427.25;5098994;28;20399;-64
2021/05/23 09:00:33;;;;;;;9.02;2.35;;;;;;;15.40;53.04;100428.78;5098935;28;20019;-65
2021/05/23 09:03:07;;;;;;;6.50;1.63;;;;;;;15.49;52.84;100437.09;5099170;28;20027;-64
2021/05/23 09:05:38;;;;;;;5.55;1.58;;;;;;;15.55;52.62;100441.34;5099165;28;20027;-64
2021/05/23 09:08:19;;;;;;;7.53;1.77;;;;;;;15.61;52.31;100433.00;5098862;28;20216;-64
2021/05/23 09:10:45;;;;;;;5.93;1.50;;;;;;;15.63;52.31;100433.47;5099264;28;20024;-64
2021/05/23 09:13:12;;;;;;;9.15;1.98;;;;;;;15.68;52.52;100428.66;5098484;28;20016;-65
2021/05/23 09:15:38;;;;;;;7.32;1.88;;;;;;;15.74;51.85;100426.59;5099408;28;20111;-64
2021/05/23 09:18:12;;;;;;;7.32;1.60;;;;;;;15.84;51.04;100428.31;5098420;28;20055;-64
2021/05/23 09:20:40;;;;;;;9.38;1.90;;;;;;;15.84;50.87;100428.31;5092577;28;20032;-63
2021/05/23 09:23:17;;;;;;;7.93;1.60;;;;;;;15.84;50.28;100425.56;5098583;28;20020;-63
2021/05/23 09:25:43;;;;;;;4.53;1.30;;;;;;;15.77;50.48;100411.41;5098912;28;20020;-64
2021/05/23 09:28:09;;;;;;;4.35;1.38;;;;;;;15.94;49.99;100417.06;5098179;28;20024;-64
2021/05/23 09:30:37;;;;;;;4.78;1.58;;;;;;;15.93;49.51;100426.44;5099080;28;20051;-65
2021/05/23 09:33:05;;;;;;;5.88;1.40;;;;;;;15.94;49.58;100419.00;5096961;28;20499;-65
2021/05/23 09:35:41;;;;;;;5.50;1.45;;;;;;;16.07;49.01;100423.59;5098971;28;20488;-65
2021/05/23 09:38:06;;;;;;;;;;;;;;;16.14;49.52;100421.22;5099193;28;20078;-64
2021/05/23 09:40:36;;;;;;;;;;;;;;;16.14;49.43;100418.47;5096835;28;19912;-64
2021/05/23 09:43:03;;;;;;;6.10;1.70;;;;;;;16.09;49.19;100413.09;5088008;28;20368;-67
2021/05/23 09:45:43;;;;;;;4.25;1.45;;;;;;;16.14;48.29;100423.16;5090009;28;20028;-67
2021/05/23 09:48:26;;;;;;;4.25;1.45;;;;;;;16.24;48.39;100408.31;5098137;28;20490;-64
2021/05/23 09:50:54;;;;;;;3.92;1.50;;;;;;;16.36;48.49;100405.78;5097772;28;20062;-64
2021/05/23 09:53:24;;;;;;;5.95;2.00;;;;;;;16.53;48.31;100400.34;5097926;28;20422;-64
2021/05/23 09:56:10;;;;;;;4.97;1.67;;;;;;;16.73;48.12;100409.16;5098696;28;20104;-64
2021/05/23 09:58:42;;;;;;;;;;;;;;;16.73;47.58;100398.13;5096066;28;20028;-64
2021/05/23 10:01:22;;;;;;;5.95;1.40;;;;;;;16.70;47.52;100396.00;5097753;28;19937;-65
2021/05/23 10:03:48;;;;;;;5.15;1.70;;;;;;;16.65;47.39;100396.16;5088167;28;20028;-65
2021/05/23 10:06:30;;;;;;;6.78;1.92;;;;;;;16.69;46.95;100391.66;5097859;28;20024;-64
2021/05/23 10:08:57;;;;;;;4.38;1.30;;;;;;;16.76;47.45;100386.50;5093394;28;20027;-63
2021/05/23 10:11:25;;;;;;;2.97;1.23;;;;;;;16.89;46.61;100386.66;5095579;28;20028;-63
2021/05/23 10:13:50;;;;;;;4.07;1.25;;;;;;;16.78;45.72;100366.88;5094839;28;20518;-64
2021/05/23 10:16:16;;;;;;;4.85;1.40;;;;;;;16.91;45.63;100381.66;5098154;28;20416;-66
2021/05/23 10:18:44;;;;;;;3.55;1.15;;;;;;;16.90;44.86;100388.28;5098139;28;20028;-64
2021/05/23 10:21:10;;;;;;;3.58;1.27;;;;;;;16.93;45.22;100376.66;5097893;28;20038;-65
2021/05/23 10:23:56;;;;;;;6.88;1.65;;;;;;;17.02;45.29;100374.72;5097997;28;20047;-63
2021/05/23 10:26:26;;;;;;;6.05;1.40;;;;;;;17.12;45.18;100379.09;5096746;28;20028;-64
2021/05/23 10:28:53;;;;;;;6.70;1.70;;;;;;;17.21;45.03;100371.66;5097751;28;20024;-66
2021/05/23 10:31:34;;;;;;;9.38;1.25;;;;;;;17.31;45.40;100367.75;5096612;28;20089;-63
2021/05/23 10:33:59;;;;;;;5.30;1.27;;;;;;;17.43;45.99;100372.59;5088394;28;20048;-64
2021/05/23 10:36:42;;;;;;;7.57;1.70;;;;;;;17.55;45.39;100366.44;5097701;28;20024;-64
2021/05/23 10:39:13;;;;;;;4.78;1.15;;;;;;;17.55;45.03;100350.72;5097699;28;20032;-64
2021/05/23 10:41:40;;;;;;;5.43;1.30;;;;;;;17.70;44.39;100363.16;5097668;28;20089;-65
2021/05/23 10:44:09;;;;;;;5.78;1.35;;;;;;;17.72;43.42;100355.38;5097558;28;20058;-63
2021/05/23 10:46:51;;;;;;;4.80;1.40;;;;;;;17.66;42.67;100342.91;5097745;28;20038;-65
2021/05/23 10:49:17;;;;;;;6.15;1.42;;;;;;;17.49;42.97;100338.22;5097593;28;20016;-65
2021/05/23 10:51:54;;;;;;;5.32;1.30;;;;;;;17.29;42.85;100323.19;5097329;28;20023;-64
2021/05/23 10:54:20;;;;;;;4.63;1.20;;;;;;;17.26;43.40;100324.66;5097217;28;20016;-65
2021/05/23 10:56:45;;;;;;;9.85;2.50;;;;;;;17.46;42.92;100352.69;5096539;28;20111;-65
2021/05/23 10:59:12;;;;;;;5.22;1.35;;;;;;;17.48;43.21;100353.13;5096899;28;20028;-66
2021/05/23 11:01:45;;;;;;;5.28;1.40;;;;;;;17.53;42.88;100343.88;5097579;28;20062;-63
2021/05/23 11:04:13;;;;;;;7.53;4.15;;;;;;;17.51;42.96;100337.91;5096611;28;20078;-66
2021/05/23 11:06:39;;;;;;;7.32;1.65;;;;;;;17.51;42.60;100338.72;5097512;28;20073;-64
2021/05/23 11:09:16;;;;;;;6.05;1.52;;;;;;;17.50;42.16;100341.81;5097061;28;20020;-65
2021/05/23 11:11:43;;;;;;;4.93;1.15;;;;;;;17.25;41.76;100309.25;5096249;28;20115;-64
2021/05/23 11:14:24;;;;;;;4.07;1.30;;;;;;;17.45;41.77;100321.53;5096612;28;20077;-65
2021/05/23 11:16:54;;;;;;;4.05;1.70;;;;;;;17.50;42.36;100323.31;5096452;28;20036;-65
2021/05/23 11:19:21;;;;;;;4.00;1.20;;;;;;;17.50;42.48;100315.03;5089745;28;20035;-65
2021/05/23 11:21:49;;;;;;;6.50;1.20;;;;;;;17.70;43.13;100323.75;5092332;28;20028;-65
2021/05/23 11:24:16;;;;;;;5.53;1.60;;;;;;;17.83;43.27;100316.41;5096412;28;20042;-66
2021/05/23 11:26:42;;;;;;;4.80;1.48;;;;;;;17.81;42.92;100293.88;5096300;28;20035;-64